Kildare, Texas
Current Conditions -  °F | °C
As of 11:15 PM on Saturday 20 Dec 2014 (Local Time) from KASL Reporting Station
Overcast Overcast  
Wind Chill: 38°   Ceiling: 100
Heat Index: 38°   Visibility: 2.5mi
Dew Point: 37°   Wind: 0mph
Humidity: 93%   Direction: NA
Pressure: 30.23"   Gusts: NA
Location:  32.94°N, 94.25°W
Report Text: KASL 210515Z AUTO 00000KT 2 1/2SM OVC001 04/03 A3023 RMK AO1 T00350025
Loading
Personal Weather Stations






























Interactive Weather Map New forecast layout! Learn more

10-Day Weather Forecast

Advertisements
Track Severe Weather on mobile